^^
NorthLandsweather Station Historical Data
 
Daily Summary for December 11, 2017 Units:  English    Metric   Both
« Previous Day
Next Day »
Daily Weekly Monthly Yearly Custom
  Current: High: Low: Average:
Temperature: 26.3 °F 26.3 °F 11.3 °F 20.1 °F
Dew Point: 23.8 °F 23.9 °F 8.2 °F 17.7 °F
Humidity: 90 % 95 % 87 % 90 %
Wind Speed: 0.0 mph 3.5 mph -999.9 mph -15.2 mph
Wind Gust: 0.0 mph 3.5 mph - -
Wind:Calm - -
Pressure: 29.83 in 30.06 in 0.00 in -
Precipitation: 0.03 in      
Historical Graphs
 
 
Tabular Data for December 11, 2017
Time Temperature Dew Point Pressure Wind Wind Speed Wind Gust Humidity Rainfall Rate (Hourly) solar Conditions
00:03 11.3 °F 8.2 °F 30.05 in Calm     87 % 0.00 in 0.0 W/m2 CLR
00:08 11.4 °F 8.3 °F 30.05 in Calm     87 % 0.00 in 0.0 W/m2 CLR
00:13 11.4 °F 8.3 °F 30.04 in Calm     87 % 0.00 in 0.0 W/m2 CLR
00:14 11.4 °F 8.3 °F 30.04 in Calm     87 % 0.00 in 0.0 W/m2 CLR
00:19 11.5 °F 8.6 °F 30.05 in Calm     88 % 0.00 in 0.0 W/m2 CLR
00:24 11.6 °F 8.7 °F 30.05 in Calm     88 % 0.00 in 0.0 W/m2 CLR
00:29 11.7 °F 8.8 °F 30.05 in Calm     88 % 0.00 in 0.0 W/m2 CLR
00:34 11.8 °F 8.9 °F 30.05 in Calm     88 % 0.00 in 0.0 W/m2 CLR
00:39 11.9 °F 9.0 °F 30.06 in Calm     88 % 0.00 in 0.0 W/m2 CLR
00:44 11.9 °F 9.0 °F 30.06 in Calm     88 % 0.00 in 0.0 W/m2 CLR
00:49 12.0 °F 9.1 °F 30.06 in Calm     88 % 0.00 in 0.0 W/m2 CLR
00:54 12.2 °F 9.3 °F 30.05 in Calm     88 % 0.00 in 0.0 W/m2 CLR
01:04 12.8 °F 10.2 °F 30.05 in Calm     89 % 0.00 in 0.0 W/m2 BKN
01:09 13.1 °F 10.5 °F 30.05 in Calm     89 % 0.00 in 0.0 W/m2 BKN
01:14 13.2 °F 10.6 °F 30.05 in Calm     89 % 0.00 in 0.0 W/m2 BKN
01:19 13.4 °F 10.8 °F 30.04 in Calm     89 % 0.00 in 0.0 W/m2 BKN
01:24 13.5 °F 10.9 °F 30.03 in Calm     89 % 0.00 in 0.0 W/m2 BKN
01:29 13.8 °F 11.2 °F 30.03 in Calm     89 % 0.00 in 0.0 W/m2 BKN
01:34 14.2 °F 11.8 °F 30.02 in Calm     90 % 0.00 in 0.0 W/m2 BKN
01:39 14.5 °F 12.1 °F 30.02 in Calm     90 % 0.00 in 0.0 W/m2 BKN
01:44 15.0 °F 12.6 °F 30.01 in Calm     90 % 0.00 in 0.0 W/m2 BKN
01:49 15.4 °F 13.0 °F 30.01 in Calm     90 % 0.00 in 0.0 W/m2 BKN
01:54 15.8 °F 13.4 °F 30.00 in Calm     90 % 0.00 in 0.0 W/m2 BKN
01:59 16.1 °F 13.7 °F 29.99 in Calm     90 % 0.00 in 0.0 W/m2 BKN
02:04 16.5 °F 14.1 °F 29.99 in Calm     90 % 0.00 in 0.0 W/m2 -SN
02:09 16.8 °F 14.4 °F 29.99 in SSE 2.3 mph 2.3 mph 90 % 0.00 in 0.0 W/m2 -SN
02:14 17.0 °F 14.6 °F 29.98 in Calm     90 % 0.00 in 0.0 W/m2 -SN
02:19 17.2 °F 14.8 °F 29.98 in Calm     90 % 0.00 in 0.0 W/m2 -SN
02:24 17.5 °F 15.1 °F 29.98 in Calm     90 % 0.00 in 0.0 W/m2 -SN
02:29 17.6 °F 14.9 °F 29.97 in Calm     89 % 0.00 in 0.0 W/m2 -SN
02:34 17.9 °F 15.2 °F 29.97 in Calm     89 % 0.00 in 0.0 W/m2 -SN
02:39 18.0 °F 15.3 °F 29.96 in SE 1.0 mph 1.0 mph 89 % 0.00 in 0.0 W/m2 -SN
02:44 18.1 °F 15.4 °F 29.96 in SE 2.3 mph   89 % 0.00 in 0.0 W/m2 -SN
02:49 18.2 °F 15.5 °F 29.96 in Calm     89 % 0.00 in 0.0 W/m2 -SN
02:54 18.2 °F 15.5 °F 29.96 in SE 2.3 mph   89 % 0.00 in 0.0 W/m2 -SN
02:59 18.4 °F 15.7 °F 29.95 in Calm     89 % 0.00 in 0.0 W/m2 -SN
03:04 18.4 °F 15.7 °F 29.94 in Calm     89 % 0.00 in 0.0 W/m2 -SN
03:09 18.5 °F 15.8 °F 29.94 in SE 1.2 mph 1.2 mph 89 % 0.00 in 0.0 W/m2 -SN
03:14 18.6 °F 15.9 °F 29.94 in SSE 1.2 mph   89 % 0.00 in 0.0 W/m2 -SN
03:19 18.6 °F 15.9 °F 29.93 in Calm     89 % 0.01 in 0.0 W/m2 -SN
03:24 18.8 °F 16.1 °F 29.92 in SSE 2.3 mph 2.3 mph 89 % 0.01 in 0.0 W/m2 -SN
03:29 18.8 °F 16.1 °F 29.92 in SE 1.0 mph 1.0 mph 89 % 0.01 in 0.0 W/m2 -SN
03:34 18.8 °F 16.4 °F 29.92 in SSE 2.3 mph 2.3 mph 90 % 0.01 in 0.0 W/m2 -SN
03:39 18.8 °F 16.4 °F 29.91 in SSE 1.2 mph   90 % 0.01 in 0.0 W/m2 -SN
03:44 18.9 °F 16.5 °F 29.92 in ESE 2.3 mph   90 % 0.01 in 0.0 W/m2 -SN
03:59 18.5 °F 16.8 °F 0.00 in North -999.9 mph -999.0 mph 93 % 0 in W/m2
04:00 19.1 °F 16.7 °F 29.92 in ESE 2.3 mph 2.3 mph 90 % 0.02 in 0.0 W/m2 -SN
04:05 19.5 °F 17.0 °F 29.92 in ESE 1.2 mph 1.2 mph 90 % 0.02 in 0.0 W/m2 -SN
04:10 19.7 °F 17.2 °F 29.92 in Calm     90 % 0.02 in 0.0 W/m2 -SN
04:15 20.0 °F 17.3 °F 29.92 in Calm     89 % 0.01 in 0.0 W/m2 -SN
04:20 20.2 °F 17.5 °F 29.91 in Calm     89 % 0.01 in 0.0 W/m2 -SN
04:25 20.3 °F 17.6 °F 29.91 in ESE 1.2 mph   89 % 0.01 in 0.0 W/m2 -SN
04:31 20.4 °F 17.4 °F 29.90 in Calm     88 % 0.01 in 0.0 W/m2 -SN
04:36 20.5 °F 17.5 °F 29.90 in Calm     88 % 0.02 in 0.0 W/m2 -SN
04:41 20.6 °F 17.6 °F 29.90 in Calm     88 % 0.02 in 0.0 W/m2 -SN
04:46 20.6 °F 17.6 °F 29.90 in Calm     88 % 0.02 in 0.0 W/m2 -SN
04:51 20.6 °F 17.9 °F 29.89 in ESE 1.2 mph 1.2 mph 89 % 0.02 in 0.0 W/m2 -SN
04:56 20.6 °F 17.9 °F 29.89 in Calm     89 % 0.01 in 0.0 W/m2 -SN
05:01 20.7 °F 18.0 °F 29.89 in Calm     89 % 0.01 in 0.0 W/m2 OVC
05:06 20.7 °F 18.2 °F 29.88 in ESE 2.0 mph 2.0 mph 90 % 0.01 in 0.0 W/m2 OVC
05:12 20.7 °F 18.2 °F 29.88 in East 1.2 mph 1.2 mph 90 % 0.01 in 0.0 W/m2 OVC
05:17 20.8 °F 18.3 °F 29.88 in Calm     90 % 0.01 in 0.0 W/m2 OVC
05:22 20.9 °F 18.7 °F 29.88 in SE 2.3 mph   91 % 0.01 in 0.0 W/m2 OVC
05:27 20.9 °F 18.7 °F 29.88 in SE 2.3 mph 2.3 mph 91 % 0.01 in 0.0 W/m2 OVC
05:32 21.0 °F 18.8 °F 29.88 in Calm     91 % 0.01 in 0.0 W/m2 OVC
05:37 21.1 °F 18.9 °F 29.87 in Calm     91 % 0.00 in 0.0 W/m2 OVC
05:42 21.3 °F 19.1 °F 29.87 in Calm   0.1 mph 91 % 0.00 in 0.0 W/m2 OVC
05:47 21.4 °F 19.2 °F 29.87 in SE 2.3 mph   91 % 0.00 in 0.0 W/m2 OVC
05:52 21.4 °F 19.2 °F 29.87 in SSE 2.3 mph   91 % 0.00 in 0.0 W/m2 OVC
05:57 21.5 °F 19.5 °F 29.87 in Calm     92 % 0.00 in 0.0 W/m2 OVC
06:02 21.6 °F 19.6 °F 29.87 in Calm   0.1 mph 92 % 0.00 in 0.0 W/m2 OVC
06:08 21.7 °F 19.7 °F 29.86 in SSE 1.2 mph 1.2 mph 92 % 0.00 in 0.0 W/m2 OVC
06:13 21.7 °F 19.7 °F 29.86 in SE 1.2 mph   92 % 0.00 in 0.0 W/m2 OVC
06:18 21.8 °F 19.8 °F 29.86 in ESE 1.2 mph 1.2 mph 92 % 0.00 in 0.0 W/m2 OVC
06:23 21.9 °F 19.9 °F 29.85 in Calm     92 % 0.00 in 0.0 W/m2 OVC
06:28 22.0 °F 20.0 °F 29.85 in SE 2.3 mph 2.3 mph 92 % 0.00 in 0.0 W/m2 OVC
06:33 22.1 °F 20.1 °F 29.85 in SE 3.5 mph 3.5 mph 92 % 0.00 in 0.0 W/m2 OVC
06:38 22.1 °F 20.1 °F 29.85 in South 1.2 mph   92 % 0.00 in 0.0 W/m2 OVC
06:43 22.2 °F 20.2 °F 29.84 in SE 3.5 mph 3.5 mph 92 % 0.00 in 0.0 W/m2 OVC
06:48 22.2 °F 20.2 °F 29.84 in Calm     92 % 0.00 in 0.0 W/m2 OVC
06:53 22.3 °F 20.3 °F 29.83 in SE 1.2 mph 1.2 mph 92 % 0.00 in 0.0 W/m2 OVC
06:58 22.4 °F 20.4 °F 29.83 in Calm     92 % 0.00 in 0.0 W/m2 OVC
07:03 22.5 °F 20.5 °F 29.83 in SSW 2.3 mph 2.3 mph 92 % 0.00 in 0.0 W/m2 -SN
07:08 22.6 °F 20.6 °F 29.83 in Calm     92 % 0.00 in 0.0 W/m2 -SN
07:13 22.7 °F 20.7 °F 29.83 in Calm   0.1 mph 92 % 0.00 in 0.0 W/m2 -SN
07:18 22.7 °F 20.7 °F 29.83 in SSE 1.2 mph 1.2 mph 92 % 0.00 in 0.0 W/m2 -SN
07:23 22.8 °F 20.8 °F 29.83 in Calm     92 % 0.00 in 0.0 W/m2 OVC
07:28 22.8 °F 20.8 °F 29.83 in SSE 3.5 mph 3.5 mph 92 % 0.00 in 0.0 W/m2 OVC
07:33 22.8 °F 20.8 °F 29.83 in Calm     92 % 0.00 in 0.0 W/m2 OVC
07:38 22.9 °F 20.9 °F 29.83 in Calm     92 % 0.00 in 0.0 W/m2 OVC
07:43 22.9 °F 21.6 °F 0.00 in North -999.9 mph -999.0 mph 95 % 0 in W/m2
07:48 23.1 °F 21.1 °F 29.83 in Calm     92 % 0.00 in 0.0 W/m2 OVC
07:53 23.1 °F 21.1 °F 29.83 in Calm     92 % 0.00 in 0.0 W/m2 OVC
07:58 23.2 °F 21.2 °F 29.83 in Calm   0.3 mph 92 % 0.00 in 0.0 W/m2 OVC
08:03 23.2 °F 21.2 °F 29.83 in Calm     92 % 0.00 in 0.0 W/m2 OVC
08:08 23.3 °F 21.3 °F 29.82 in East 1.2 mph 1.2 mph 92 % 0.00 in 0.0 W/m2 OVC
08:13 23.3 °F 21.3 °F 29.82 in ESE 2.3 mph 2.3 mph 92 % 0.00 in 32.0 W/m2 OVC
08:18 23.2 °F 21.2 °F 29.81 in ESE 2.3 mph 2.3 mph 92 % 0.00 in 55.2 W/m2 OVC
08:23 23.2 °F 21.2 °F 29.81 in ESE 3.5 mph   92 % 0.00 in 91.6 W/m2 OVC
08:28 23.3 °F 21.3 °F 29.81 in Calm     92 % 0.00 in 102.7 W/m2 OVC
08:33 23.4 °F 21.4 °F 29.82 in Calm     92 % 0.00 in 125.9 W/m2 OVC
08:38 23.4 °F 21.4 °F 29.82 in Calm     92 % 0.00 in 124.9 W/m2 OVC
08:43 23.5 °F 21.5 °F 29.81 in Calm     92 % 0.00 in 122.9 W/m2 OVC
08:48 23.6 °F 21.6 °F 29.82 in Calm     92 % 0.00 in 137.1 W/m2 OVC
08:53 23.7 °F 21.7 °F 29.82 in Calm     92 % 0.00 in 129.0 W/m2 OVC
08:58 23.8 °F 21.8 °F 29.82 in Calm     92 % 0.00 in 120.9 W/m2 OVC
09:03 23.9 °F 21.9 °F 29.82 in Calm     92 % 0.00 in 126.9 W/m2 OVC
09:08 24.0 °F 22.0 °F 29.82 in Calm     92 % 0.00 in 134.0 W/m2 OVC
09:13 24.2 °F 22.2 °F 29.82 in Calm     92 % 0.00 in 123.9 W/m2 OVC
09:18 24.3 °F 22.3 °F 29.82 in SSE 2.3 mph 2.3 mph 92 % 0.00 in 136.0 W/m2 OVC
09:28 24.4 °F 22.4 °F 29.83 in Calm     92 % 0.00 in 142.1 W/m2 OVC
09:33 24.4 °F 22.4 °F 29.83 in Calm     92 % 0.00 in 140.1 W/m2 OVC
09:38 24.5 °F 22.5 °F 29.83 in Calm     92 % 0.00 in 145.1 W/m2 OVC
09:43 24.6 °F 22.6 °F 29.83 in Calm     92 % 0.00 in 140.1 W/m2 OVC
09:48 24.6 °F 22.6 °F 29.83 in Calm     92 % 0.00 in 138.1 W/m2 OVC
09:53 24.7 °F 22.7 °F 29.83 in Calm     92 % 0.00 in 142.1 W/m2 OVC
09:58 24.8 °F 22.8 °F 29.82 in Calm     92 % 0.00 in 145.1 W/m2 OVC
10:03 24.9 °F 22.9 °F 29.83 in Calm     92 % 0.00 in 150.2 W/m2 OVC
10:13 25.2 °F 22.9 °F 29.83 in Calm     91 % 0.00 in 149.2 W/m2 OVC
10:18 25.3 °F 23.0 °F 29.83 in Calm     91 % 0.00 in 145.1 W/m2 -SN
10:23 25.4 °F 23.1 °F 29.83 in Calm     91 % 0.00 in 144.1 W/m2 -SN
10:28 25.6 °F 23.3 °F 29.83 in Calm     91 % 0.00 in 148.2 W/m2 -SN
10:33 25.7 °F 23.4 °F 29.83 in Calm     91 % 0.00 in 157.3 W/m2 -SN
10:38 25.9 °F 23.6 °F 29.83 in Calm     91 % 0.00 in 160.3 W/m2 -SN
10:43 26.2 °F 23.9 °F 29.83 in Calm     91 % 0.00 in 167.3 W/m2 -SN
10:48 26.2 °F 23.7 °F 29.83 in Calm     90 % 0.00 in 181.5 W/m2 -SN
10:49 26.3 °F 23.8 °F 29.83 in Calm     90 % 0.00 in 181.5 W/m2 -SN
Winter, Wisconsin USA
Compliments of Weather Underground - 1.5 mb